createdAt,value
2023-01-02T00:00:07.306Z,21.08
2023-01-02T00:03:09.567Z,24.23
2023-01-02T00:06:11.905Z,23.98
2023-01-02T00:09:14.115Z,17.67
2023-01-02T00:12:16.302Z,18.87
2023-01-02T00:15:18.539Z,24.10
2023-01-02T00:18:20.810Z,21.33
2023-01-02T00:21:23.024Z,24.40
2023-01-02T00:24:25.189Z,19.00
2023-01-02T00:27:27.387Z,27.08
2023-01-02T00:30:37.574Z,17.27
2023-01-02T00:33:40.810Z,20.12
2023-01-02T00:36:42.981Z,16.75
2023-01-02T00:39:45.160Z,15.77
2023-01-02T00:42:47.370Z,20.08
2023-01-02T00:45:49.586Z,21.87
2023-01-02T00:48:51.797Z,19.42
2023-01-02T00:51:53.979Z,22.98
2023-01-02T00:54:56.160Z,18.35
2023-01-02T00:57:58.335Z,20.88
2023-01-02T01:01:00.630Z,21.98
2023-01-02T01:04:02.921Z,26.15
2023-01-02T01:07:05.127Z,19.23
2023-01-02T01:10:07.899Z,21.10
2023-01-02T01:13:10.123Z,19.08
2023-01-02T01:16:15.189Z,18.35
2023-01-02T01:19:17.377Z,23.58
2023-01-02T01:22:19.571Z,18.33
2023-01-02T01:25:21.813Z,18.30
2023-01-02T01:28:24.082Z,23.33
2023-01-02T01:31:26.411Z,21.85
2023-01-02T01:34:28.646Z,28.70
2023-01-02T01:37:30.796Z,22.45
2023-01-02T01:40:39.550Z,18.17
2023-01-02T01:43:44.422Z,22.00
2023-01-02T01:46:47.408Z,12.43
2023-01-02T01:50:05.167Z,17.67
2023-01-02T01:53:18.999Z,17.08
2023-01-02T01:56:21.384Z,30.73
2023-01-02T01:59:24.005Z,15.70
2023-01-02T02:02:27.001Z,11.88
2023-01-02T02:05:30.986Z,14.30
2023-01-02T02:08:42.972Z,17.12
2023-01-02T02:11:45.480Z,12.25
2023-01-02T02:14:47.686Z,13.55
2023-01-02T02:17:56.667Z,14.32
2023-01-02T02:21:26.474Z,13.32
2023-01-02T02:24:49.828Z,17.58
2023-01-02T02:28:16.533Z,32.40
2023-01-02T02:31:34.558Z,11.80
2023-01-02T02:34:51.964Z,25.85
2023-01-02T02:37:58.879Z,32.20
2023-01-02T02:41:28.802Z,15.75
2023-01-02T02:44:42.079Z,14.18
2023-01-02T02:47:56.385Z,17.35
2023-01-02T02:51:00.769Z,16.65
2023-01-02T02:54:13.635Z,20.88
2023-01-02T02:57:16.133Z,16.58
2023-01-02T03:00:20.132Z,18.92
2023-01-02T03:03:23.478Z,22.70
2023-01-02T03:06:43.395Z,23.27
2023-01-02T03:10:06.226Z,13.95
2023-01-02T03:13:16.556Z,15.20
2023-01-02T03:16:28.295Z,15.52
2023-01-02T03:19:37.855Z,13.77
2023-01-02T03:22:43.903Z,19.77
2023-01-02T03:25:47.362Z,22.15
2023-01-02T03:28:54.768Z,12.82
2023-01-02T03:31:58.644Z,16.80
2023-01-02T03:35:04.616Z,16.70
2023-01-02T03:38:10.669Z,13.05
2023-01-02T03:41:19.107Z,13.55
2023-01-02T03:44:23.259Z,16.70
2023-01-02T03:47:37.636Z,12.75
2023-01-02T03:50:47.770Z,15.40
2023-01-02T03:53:50.926Z,14.27
2023-01-02T03:57:22.612Z,9.23
2023-01-02T04:03:46.990Z,9.82
2023-01-02T04:06:51.941Z,15.00
2023-01-02T04:09:54.694Z,10.55
2023-01-02T04:13:01.067Z,19.48
2023-01-02T04:16:04.511Z,9.88
2023-01-02T04:19:10.750Z,11.32
2023-01-02T04:22:22.151Z,10.70
2023-01-02T04:25:31.239Z,14.50
2023-01-02T04:28:34.452Z,15.68
2023-01-02T04:31:39.827Z,16.48
2023-01-02T04:34:42.439Z,9.70
2023-01-02T04:37:44.970Z,15.93
2023-01-02T04:40:47.189Z,11.50
2023-01-02T04:43:49.361Z,16.83
2023-01-02T04:46:51.517Z,9.10
2023-01-02T04:49:53.692Z,20.20
2023-01-02T04:52:55.895Z,20.05
2023-01-02T04:55:58.311Z,17.17
2023-01-02T04:59:00.762Z,8.60
2023-01-02T05:02:03.163Z,12.85
2023-01-02T05:05:06.970Z,11.50
2023-01-02T05:08:15.929Z,14.23
2023-01-02T05:11:19.886Z,10.18
2023-01-02T05:14:22.092Z,12.60
2023-01-02T05:17:24.330Z,10.13
2023-01-02T05:20:26.509Z,11.98
2023-01-02T05:23:47.323Z,13.32
2023-01-02T05:26:49.486Z,13.47
2023-01-02T05:29:51.647Z,16.95
2023-01-02T05:32:54.036Z,14.98
2023-01-02T05:35:56.234Z,10.88
2023-01-02T05:38:59.226Z,17.25
2023-01-02T05:42:01.450Z,14.00
2023-01-02T05:45:04.416Z,12.93
2023-01-02T05:48:06.609Z,14.40
2023-01-02T05:51:10.492Z,15.73
2023-01-02T05:54:12.699Z,11.82
2023-01-02T05:57:15.706Z,12.37
2023-01-02T06:00:18.062Z,12.68
2023-01-02T06:03:20.331Z,10.23
2023-01-02T06:06:30.749Z,14.82
2023-01-02T06:09:32.997Z,10.70
2023-01-02T06:12:35.175Z,11.90
2023-01-02T06:15:37.337Z,17.65
2023-01-02T06:18:40.501Z,16.08
2023-01-02T06:21:42.654Z,10.68
2023-01-02T06:24:44.878Z,10.88
2023-01-02T06:27:47.048Z,11.57
2023-01-02T06:30:49.282Z,10.52
2023-01-02T06:33:58.439Z,27.60
2023-01-02T06:37:04.531Z,20.17
2023-01-02T06:40:12.026Z,19.52
2023-01-02T06:43:14.241Z,24.67
2023-01-02T06:46:18.495Z,16.37
2023-01-02T06:49:20.796Z,13.43
2023-01-02T06:52:23.041Z,11.40
2023-01-02T06:55:25.203Z,11.57
2023-01-02T06:58:30.486Z,13.48
2023-01-02T07:01:32.872Z,14.57
2023-01-02T07:04:35.106Z,29.20
2023-01-02T07:07:37.638Z,20.40
2023-01-02T07:10:39.896Z,13.40
2023-01-02T07:13:43.267Z,9.35
2023-01-02T07:16:48.165Z,21.48
2023-01-02T07:19:53.970Z,28.80
2023-01-02T07:22:58.305Z,9.95
2023-01-02T07:26:02.745Z,12.48
2023-01-02T07:29:04.993Z,15.75
2023-01-02T07:32:07.200Z,11.00
2023-01-02T07:35:10.555Z,25.55
2023-01-02T07:38:12.777Z,20.98
2023-01-02T07:41:16.277Z,19.17
2023-01-02T07:44:18.481Z,11.73
2023-01-02T07:47:20.662Z,10.70
2023-01-02T07:50:22.877Z,15.13
2023-01-02T07:53:25.225Z,8.63
2023-01-02T07:56:27.396Z,9.95
2023-01-02T07:59:29.552Z,10.18
2023-01-02T08:02:31.832Z,13.30
2023-01-02T08:05:34.836Z,24.55
2023-01-02T08:08:37.641Z,15.23
2023-01-02T08:11:39.814Z,13.98
2023-01-02T08:14:41.965Z,24.65
2023-01-02T08:17:44.166Z,30.33
2023-01-02T08:20:46.357Z,15.98
2023-01-02T08:23:48.585Z,17.83
2023-01-02T08:26:50.822Z,20.45
2023-01-02T08:29:53.137Z,10.77
2023-01-02T08:32:55.331Z,12.27
2023-01-02T08:35:57.540Z,13.65
2023-01-02T08:38:59.729Z,12.25
2023-01-02T08:42:01.976Z,11.52
2023-01-02T08:45:04.592Z,11.82
2023-01-02T08:48:20.569Z,20.75
2023-01-02T08:51:24.511Z,17.55
2023-01-02T08:54:26.707Z,18.08
2023-01-02T08:57:29.009Z,23.87
2023-01-02T09:00:31.262Z,16.75
2023-01-02T09:03:33.583Z,12.57
2023-01-02T09:06:37.012Z,20.33
2023-01-02T09:09:39.245Z,25.10
2023-01-02T09:12:41.431Z,24.48
2023-01-02T09:15:46.439Z,22.95
2023-01-02T09:18:48.747Z,21.17
2023-01-02T09:21:51.040Z,30.75
2023-01-02T09:24:53.193Z,19.90
2023-01-02T09:27:55.405Z,16.15
2023-01-02T09:30:57.712Z,20.77
2023-01-02T09:33:59.944Z,18.65
2023-01-02T09:37:02.123Z,21.25
2023-01-02T09:40:04.768Z,12.25
2023-01-02T09:43:06.943Z,16.23
2023-01-02T09:46:17.471Z,14.13
2023-01-02T09:49:32.045Z,12.35
2023-01-02T09:52:43.641Z,15.32
2023-01-02T09:55:52.092Z,14.45
2023-01-02T09:59:29.734Z,9.95
2023-01-02T10:02:50.893Z,13.23
2023-01-02T10:06:02.636Z,10.25
2023-01-02T10:09:31.278Z,9.38
2023-01-02T10:13:12.264Z,10.30
2023-01-02T10:16:19.565Z,14.93
2023-01-02T10:19:34.776Z,13.70
2023-01-02T10:22:43.488Z,18.33
2023-01-02T10:25:54.081Z,13.88
2023-01-02T10:29:30.664Z,13.63
2023-01-02T10:32:34.817Z,13.90
2023-01-02T10:35:58.525Z,14.07
2023-01-02T10:39:03.467Z,12.02
2023-01-02T10:42:06.856Z,12.25
2023-01-02T10:45:14.235Z,16.85
2023-01-02T10:48:16.392Z,13.23
2023-01-02T10:51:19.085Z,9.65
2023-01-02T10:54:21.334Z,12.48
2023-01-02T10:57:46.314Z,11.00
2023-01-02T11:00:50.262Z,11.12
2023-01-02T11:03:55.620Z,12.43
2023-01-02T11:07:02.807Z,15.07
2023-01-02T11:10:14.659Z,14.85
2023-01-02T11:13:21.782Z,16.92
2023-01-02T11:16:25.609Z,23.55
2023-01-02T11:19:29.985Z,33.35
2023-01-02T11:22:35.434Z,19.10
2023-01-02T11:25:41.474Z,21.52
2023-01-02T11:28:43.689Z,22.67
2023-01-02T11:31:51.050Z,21.50
2023-01-02T11:35:04.722Z,19.42
2023-01-02T11:38:13.943Z,26.30
2023-01-02T11:42:07.291Z,26.77
2023-01-02T11:45:17.649Z,17.77
2023-01-02T11:48:22.164Z,16.90
2023-01-02T11:51:24.380Z,14.68
2023-01-02T11:54:53.803Z,13.82
2023-01-02T11:58:06.654Z,26.92
2023-01-02T12:01:19.745Z,19.20
2023-01-02T12:04:22.908Z,27.83
2023-01-02T12:07:40.810Z,17.23
2023-01-02T12:11:29.092Z,18.80
2023-01-02T12:14:54.196Z,18.73
2023-01-02T12:18:18.778Z,15.68
2023-01-02T12:21:31.384Z,20.65
2023-01-02T12:24:48.793Z,21.45
2023-01-02T12:28:02.771Z,20.83
2023-01-02T12:31:05.001Z,31.10
2023-01-02T12:34:31.441Z,21.42
2023-01-02T12:37:49.557Z,24.85
2023-01-02T12:41:10.711Z,21.50
2023-01-02T12:44:12.903Z,27.25
2023-01-02T12:47:34.046Z,21.95
2023-01-02T12:50:48.770Z,17.12
2023-01-02T12:54:18.843Z,22.08
2023-01-02T12:57:22.886Z,23.08
2023-01-02T13:01:02.869Z,23.17
2023-01-02T13:04:20.704Z,27.83
2023-01-02T13:07:33.853Z,16.45
2023-01-02T13:10:36.107Z,15.98
2023-01-02T13:13:38.595Z,23.42
2023-01-02T13:16:45.116Z,16.67
2023-01-02T13:19:56.873Z,18.40
2023-01-02T13:23:05.682Z,17.95
2023-01-02T13:26:10.092Z,27.33
2023-01-02T13:29:12.197Z,20.67
2023-01-02T13:32:15.184Z,25.90
2023-01-02T13:35:17.531Z,30.95
2023-01-02T13:38:20.444Z,26.87
2023-01-02T13:41:23.060Z,23.52
2023-01-02T13:44:33.206Z,32.28
2023-01-02T13:47:39.306Z,21.10
2023-01-02T13:50:41.857Z,25.40
2023-01-02T13:53:46.714Z,22.25
2023-01-02T13:57:18.304Z,19.23
2023-01-02T14:00:20.428Z,26.00
2023-01-02T14:03:25.513Z,20.85
2023-01-02T14:06:31.123Z,15.00
2023-01-02T14:10:11.495Z,30.40
2023-01-02T14:13:22.214Z,15.27
2023-01-02T14:16:48.356Z,18.50
2023-01-02T14:20:28.648Z,17.75
2023-01-02T14:23:37.462Z,26.05
2023-01-02T14:26:41.553Z,22.00
2023-01-02T14:30:16.243Z,20.80
2023-01-02T14:33:35.183Z,28.90
2023-01-02T14:36:43.573Z,20.60
2023-01-02T14:39:45.988Z,37.83
2023-01-02T14:43:19.346Z,21.75
2023-01-02T14:46:24.446Z,22.90
2023-01-02T14:49:27.344Z,20.33
2023-01-02T14:52:37.525Z,31.87
2023-01-02T14:55:42.257Z,19.55
2023-01-02T14:58:48.891Z,30.27
2023-01-02T15:01:54.690Z,21.98
2023-01-02T15:05:06.395Z,23.23
2023-01-02T15:08:11.580Z,20.92
2023-01-02T15:11:35.606Z,17.48
2023-01-02T15:14:39.438Z,26.08
2023-01-02T15:17:42.479Z,27.48
2023-01-02T15:20:53.386Z,20.67
2023-01-02T15:23:57.855Z,24.15
2023-01-02T15:27:25.104Z,21.80
2023-01-02T15:30:27.292Z,21.35
2023-01-02T15:33:30.831Z,19.75
2023-01-02T15:36:40.684Z,33.30
2023-01-02T15:39:45.044Z,30.88
2023-01-02T15:43:06.656Z,27.40
2023-01-02T15:49:14.478Z,35.15
2023-01-02T15:52:23.293Z,48.97
2023-01-02T15:55:25.811Z,34.78
2023-01-02T15:58:30.607Z,44.10
2023-01-02T16:01:32.946Z,89.28
2023-01-02T16:04:35.445Z,34.88
2023-01-02T16:07:38.770Z,52.97
2023-01-02T16:10:50.640Z,47.50
2023-01-02T16:14:19.161Z,24.75
2023-01-02T16:17:26.085Z,18.92
2023-01-02T16:20:29.309Z,43.05
2023-01-02T16:23:31.839Z,62.40
2023-01-02T16:26:40.034Z,24.27
2023-01-02T16:29:43.265Z,31.02
2023-01-02T16:32:49.312Z,48.97
2023-01-02T16:36:08.247Z,25.80
2023-01-02T16:39:39.610Z,21.67
2023-01-02T16:42:42.014Z,23.55
2023-01-02T16:45:46.286Z,24.12
2023-01-02T16:48:48.522Z,24.67
2023-01-02T16:51:53.640Z,20.85
2023-01-02T16:54:55.864Z,27.98
2023-01-02T16:57:58.023Z,28.45
2023-01-02T17:01:00.395Z,27.92
2023-01-02T17:04:02.698Z,47.80
2023-01-02T17:07:04.928Z,19.75
2023-01-02T17:10:07.419Z,19.42
2023-01-02T17:13:10.023Z,34.75
2023-01-02T17:16:13.054Z,27.60
2023-01-02T17:19:15.497Z,35.97
2023-01-02T17:22:17.767Z,24.33
2023-01-02T17:25:20.291Z,24.17
2023-01-02T17:28:22.597Z,29.42
2023-01-02T17:31:26.528Z,30.50
2023-01-02T17:34:28.837Z,32.42
2023-01-02T17:37:31.127Z,29.63
2023-01-02T17:40:33.731Z,35.20
2023-01-02T17:43:35.975Z,37.35
2023-01-02T17:47:09.453Z,33.63
2023-01-02T17:50:01.366Z,23.52
2023-01-02T17:53:03.707Z,31.83
2023-01-02T17:56:21.131Z,26.73
2023-01-02T17:59:24.908Z,38.38
2023-01-02T18:02:27.941Z,36.72
2023-01-02T18:05:31.052Z,32.60
2023-01-02T18:08:34.039Z,27.23
2023-01-02T18:11:36.480Z,26.92
2023-01-02T18:14:39.972Z,31.90
2023-01-02T18:17:42.482Z,25.92
2023-01-02T18:20:46.253Z,22.83
2023-01-02T18:23:51.842Z,23.50
2023-01-02T18:27:07.579Z,25.23
2023-01-02T18:30:28.672Z,30.42
2023-01-02T18:33:33.085Z,128.85
2023-01-02T18:36:35.585Z,64.30
2023-01-02T18:39:42.458Z,29.75
2023-01-02T18:42:49.693Z,29.65
2023-01-02T18:45:54.638Z,40.78
2023-01-02T18:48:57.150Z,34.75
2023-01-02T18:52:11.700Z,33.97
2023-01-02T18:55:14.178Z,25.75
2023-01-02T18:58:35.038Z,27.33
2023-01-02T19:01:41.231Z,42.55
2023-01-02T19:04:43.695Z,31.52
2023-01-02T19:07:46.104Z,37.63
2023-01-02T19:10:53.323Z,128.68
2023-01-02T19:13:58.912Z,149.68
2023-01-02T19:17:07.196Z,50.38
2023-01-02T19:20:11.429Z,34.72
2023-01-02T19:23:57.135Z,35.58
2023-01-02T19:26:59.753Z,22.62
2023-01-02T19:30:07.576Z,30.42
2023-01-02T19:33:37.658Z,27.65
2023-01-02T19:36:40.230Z,31.02
2023-01-02T19:39:47.625Z,30.85
2023-01-02T19:42:51.699Z,31.58
2023-01-02T19:45:53.987Z,38.20
2023-01-02T19:48:56.570Z,34.50
2023-01-02T19:51:58.851Z,26.67
2023-01-02T19:55:01.904Z,41.67
2023-01-02T19:58:04.652Z,28.08
2023-01-02T20:01:07.045Z,43.70
2023-01-02T20:04:09.455Z,26.83
2023-01-02T20:07:12.255Z,32.50
2023-01-02T20:10:14.507Z,36.38
2023-01-02T20:13:16.963Z,30.17
2023-01-02T20:16:19.406Z,33.17
2023-01-02T20:19:22.009Z,43.95
2023-01-02T20:22:24.330Z,29.60
2023-01-02T20:25:26.904Z,29.52
2023-01-02T20:28:29.479Z,33.55
2023-01-02T20:31:31.891Z,39.13
2023-01-02T20:34:34.297Z,26.75
2023-01-02T20:37:36.632Z,34.55
2023-01-02T20:40:39.406Z,37.78
2023-01-02T20:43:41.611Z,44.45
2023-01-02T20:46:43.985Z,89.25
2023-01-02T20:49:46.271Z,60.33
2023-01-02T20:52:53.475Z,76.32
2023-01-02T20:55:59.137Z,47.38
2023-01-02T20:59:01.691Z,48.97
2023-01-02T21:02:04.575Z,57.97
2023-01-02T21:05:07.395Z,38.30
2023-01-02T21:08:10.051Z,26.33
2023-01-02T21:11:12.300Z,34.50
2023-01-02T21:14:14.556Z,26.85
2023-01-02T21:17:17.016Z,36.13
2023-01-02T21:20:19.200Z,34.20
2023-01-02T21:23:23.393Z,31.92
2023-01-02T21:26:25.622Z,46.83
2023-01-02T21:29:28.190Z,26.65
2023-01-02T21:32:30.611Z,29.42
2023-01-02T21:35:33.731Z,34.42
2023-01-02T21:38:37.635Z,34.47
2023-01-02T21:41:58.516Z,35.95
2023-01-02T21:45:00.707Z,37.38
2023-01-02T21:48:03.233Z,32.30
2023-01-02T21:51:06.451Z,32.20
2023-01-02T21:54:08.922Z,34.90
2023-01-02T21:57:11.393Z,29.00
2023-01-02T22:00:16.201Z,32.20
2023-01-02T22:03:18.563Z,31.52
2023-01-02T22:06:21.415Z,37.33
2023-01-02T22:09:23.653Z,38.17
2023-01-02T22:12:27.363Z,40.10
2023-01-02T22:15:29.577Z,36.80
2023-01-02T22:18:36.327Z,47.17
2023-01-02T22:21:40.716Z,40.15
2023-01-02T22:24:44.917Z,74.70
2023-01-02T22:27:47.263Z,90.95
2023-01-02T22:30:49.537Z,57.72
2023-01-02T22:33:51.739Z,36.60
2023-01-02T22:36:54.417Z,33.08
2023-01-02T22:39:56.614Z,49.67
2023-01-02T22:43:02.106Z,40.38
2023-01-02T22:46:07.629Z,37.80
2023-01-02T22:49:15.211Z,45.50
2023-01-02T22:52:17.435Z,35.05
2023-01-02T22:55:22.206Z,43.63
2023-01-02T22:58:26.052Z,52.90
2023-01-02T23:01:34.573Z,37.35
2023-01-02T23:04:36.841Z,35.70
2023-01-02T23:07:39.312Z,43.10
2023-01-02T23:10:41.525Z,38.17
2023-01-02T23:13:44.072Z,34.88
2023-01-02T23:17:04.829Z,35.08
2023-01-02T23:20:07.627Z,42.30
2023-01-02T23:23:10.077Z,34.65
2023-01-02T23:26:13.978Z,35.08
2023-01-02T23:29:17.288Z,66.78
2023-01-02T23:32:19.541Z,33.92
2023-01-02T23:35:21.762Z,40.33
2023-01-02T23:38:24.884Z,42.28
2023-01-02T23:41:27.416Z,38.50
2023-01-02T23:44:29.655Z,50.28
2023-01-02T23:47:31.874Z,72.85
2023-01-02T23:50:34.094Z,50.75
2023-01-02T23:53:36.296Z,35.78
2023-01-02T23:56:39.982Z,34.03
2023-01-02T23:59:42.209Z,34.88
